Flight Track Log - Related Links

Times and Time Zones

All times are in EDT time to prevent confusion due to time zone crossing. See the C-GJRV flight status page for this flight to view local times or setup timezone preferences in your user account.

Time Position Orientation Groundspeed Altitude Reporting Facility
EDT Latitude Longitude Course Direction KTS MPH feet Rate Location/Type
Wed 05:32:00 PM 46.7739 -56.1338 69° East  Level Estimated
Wed 05:33:00 PM 46.7851 -56.0920 69° East  Level Estimated
Wed 05:34:00 PM 46.7963 -56.0503 69° East  Level Estimated
Wed 05:35:00 PM 46.8075 -56.0085 69° East  Level Estimated
Wed 05:36:00 PM 46.8186 -55.9667 69° East  Level Estimated
Wed 05:37:00 PM 46.8298 -55.9248 69° East  Level Estimated
Wed 05:38:00 PM 46.8409 -55.8830 69° East  Level Estimated
Wed 05:39:00 PM 46.8520 -55.8411 69° East  Level Estimated
Wed 05:40:00 PM 46.8631 -55.7993 69° East  Level Estimated
Wed 05:41:00 PM 46.8742 -55.7574 69° East  Level Estimated
Wed 05:42:00 PM 46.8853 -55.7155 69° East  Level Estimated
Wed 05:43:00 PM 46.8964 -55.6735 69° East  Level Estimated
Wed 05:44:00 PM 46.9074 -55.6316 69° East  Level Estimated
Wed 05:45:00 PM 46.9184 -55.5896 69° East  Level Estimated
Wed 05:46:00 PM 46.9294 -55.5476 69° East  Level Estimated
Wed 05:47:00 PM 46.9404 -55.5056 69° East  Level Estimated
Wed 05:48:00 PM 46.9514 -55.4636 69° East  Level Estimated
Wed 05:49:00 PM 46.9623 -55.4216 69° East  Level Estimated
Wed 05:50:00 PM 46.9733 -55.3795 69° East  Level Estimated
Wed 05:51:00 PM 46.9842 -55.3375 69° East  Level Estimated
Wed 05:52:00 PM 46.9952 -55.2954 69° East  Level Estimated
Wed 05:53:00 PM 47.0061 -55.2533 69° East  Level Estimated
Wed 05:54:00 PM 47.0169 -55.2112 69° East  Level Estimated
Wed 05:55:00 PM 47.0278 -55.1690 69° East  Level Estimated
Wed 05:56:00 PM 47.0387 -55.1269 69° East  Level Estimated
Wed 05:57:00 PM 47.0495 -55.0847 69° East  Level Estimated
Wed 05:58:00 PM 47.0603 -55.0425 69° East  Level Estimated
Wed 05:59:00 PM 47.0711 -55.0003 69° East  Level Estimated
Wed 06:00:00 PM 47.0819 -54.9581 69° East  Level Estimated
Wed 06:01:00 PM 47.0927 -54.9159 69° East  Level Estimated
Wed 06:02:00 PM 47.1035 -54.8736 69° East  Level Estimated
Wed 06:03:00 PM 47.1142 -54.8313 70° East  Level Estimated
Wed 06:04:00 PM 47.1250 -54.7890 70° East  Level Estimated
Wed 06:05:00 PM 47.1357 -54.7467 70° East  Level Estimated
Wed 06:06:00 PM 47.1464 -54.7044 70° East  Level Estimated
Wed 06:07:00 PM 47.1571 -54.6621 70° East  Level Estimated
Wed 06:08:00 PM 47.1677 -54.6197 70° East  Level Estimated
Wed 06:09:00 PM 47.1784 -54.5773 70° East  Level Estimated
Wed 06:10:00 PM 47.1890 -54.5349 70° East  Level Estimated
Wed 06:11:00 PM 47.1996 -54.4925 70° East  Level Estimated
Wed 06:12:00 PM 47.2102 -54.4501 70° East  Level Estimated
Wed 06:13:00 PM 47.2208 -54.4077 70° East  Level Estimated
Wed 06:14:00 PM 47.2314 -54.3652 70° East  Level Estimated
Wed 06:15:00 PM 47.2420 -54.3227 70° East  Level Estimated
Wed 06:16:00 PM 47.2525 -54.2802 70° East  Level Estimated
Wed 06:17:00 PM 47.2630 -54.2377 70° East  Level Estimated
Wed 06:18:00 PM 47.2735 -54.1952 70° East  Level Estimated
Wed 06:19:00 PM 47.2840 -54.1526 70° East  Level Estimated
Wed 06:20:00 PM 47.2945 -54.1101 70° East  Level Estimated
Wed 06:21:00 PM 47.3050 -54.0675 70° East  Level Estimated
Wed 06:22:00 PM 47.3154 -54.0249 70° East  Level Estimated
Wed 06:23:00 PM 47.3259 -53.9823 70° East  Level Estimated
Wed 06:24:00 PM 47.3363 -53.9397 70° East  Level Estimated
Wed 06:25:00 PM 47.3467 -53.8970 70° East  Level Estimated
Wed 06:26:00 PM 47.3571 -53.8544 70° East  Level Estimated
Wed 06:27:00 PM 47.3675 -53.8117 70° East  Level Estimated
Wed 06:28:00 PM 47.3778 -53.7690 70° East  Level Estimated
Wed 06:29:00 PM 47.3881 -53.7263 70° East  Level Estimated
Wed 06:30:00 PM 47.3985 -53.6835 70° East  Level Estimated
Wed 06:31:00 PM 47.4088 -53.6408 70° East  Level Estimated
Wed 06:32:00 PM 47.4191 -53.5980 70° East  Level Estimated
Wed 06:33:00 PM 47.4294 -53.5552 70° East  Level Estimated
Wed 06:34:00 PM 47.4396 -53.5125 70° East  Level Estimated
Wed 06:35:00 PM 47.4498 -53.4696 71° East  Level Estimated
Wed 06:36:00 PM 47.4601 -53.4268 71° East  Level Estimated
Wed 06:37:00 PM 47.4703 -53.3840 71° East  Level Estimated
Wed 06:38:00 PM 47.4805 -53.3411 71° East  Level Estimated
Wed 06:39:00 PM 47.4907 -53.2982 71° East  Level Estimated
Wed 06:40:00 PM 47.5008 -53.2553 71° East  Level Estimated
Wed 06:41:00 PM 47.5110 -53.2124 71° East  Level Estimated
Wed 06:42:00 PM 47.5211 -53.1695 71° East  Level Estimated
Wed 06:43:00 PM 47.5312 -53.1265 71° East  Level Estimated
Wed 06:44:00 PM 47.5413 -53.0836 71° East  Level Estimated
Wed 06:45:00 PM 47.5514 -53.0406 71° East  Level Estimated
Wed 06:46:00 PM 47.5615 -52.9976 71° East  Level Estimated
Wed 06:47:00 PM 47.5715 -52.9546 71° East  Level Estimated
Wed 06:48:00 PM 47.5816 -52.9115 71° East  Level Estimated
Wed 06:49:00 PM 47.5916 -52.8685 71° East  Level Estimated
Wed 06:50:00 PM 47.6016 -52.8255 71° East  Level Estimated
Wed 06:51:00 PM 47.6116 -52.7824 71° East  Level Estimated
Wed 06:52:00 PM 47.6186 -52.7519 71° East  Level Estimated
Wed 06:53:00 PM 47.6186 -52.7519 270° West  Level Estimated
Wed 06:54:00 PM 47.6186 -52.7519 270° West  Level Estimated
Wed 06:55:00 PM 47.6186 -52.7519 270° West  Level Estimated
Wed 06:56:00 PM 47.6186 -52.7519 270° West  Level Estimated
Wed 06:57:00 PM 47.6186 -52.7519 270° West  Level Estimated
Wed 06:58:00 PM 47.6186 -52.7519 270° West  Level Estimated
Wed 06:59:00 PM 47.6186 -52.7519 270° West  Level Estimated
Wed 07:00:00 PM 47.6186 -52.7519 270° West  Level Estimated
Wed 07:01:00 PM 47.6186 -52.7519 270° West  Level Estimated
Wed 07:02:00 PM 47.6186 -52.7519 270° West  Level Estimated
Wed 07:03:00 PM 47.6186 -52.7519 270° West  Level Estimated
Wed 07:04:00 PM 47.6186 -52.7519 270° West  Level Estimated
Wed 07:05:00 PM 47.6186 -52.7519 270° West  Level Estimated
Wed 07:06:00 PM 47.6186 -52.7519 270° West  Level Estimated
Wed 07:07:00 PM 47.6186 -52.7519 270° West  Level Estimated

Login

Don't have an account? Register now (free) for customized features, flight alerts, and more!